Terminal Aerodrome Forecast
Issued by NWS Cleveland, OH

Home | Current Version | Previous Version | Text Only | Print | Product List | Glossary Off
Versions: 1 2 3 4 5 6 7 8 9 10 11 12 13 14 15

000
FTUS41 KCLE 100500
TAFMFD
TAF
KMFD 100523Z 1006/1106 33003KT P6SM SCT100
     FM100900 VRB03KT 4SM BR SKC
     FM101400 02006KT P6SM SCT040=

USA.gov is the U.S. government's official web portal to all federal, state and local government web resources and services.